Time;durP1;ratioP1;P1;durP2;ratioP2;P2;SDS_P1;SDS_P2;PMS_P1;PMS_P2;Temp;Humidity;BMP_temperature;BMP_pressure;BME280_temperature;BME280_humidity;BME280_pressure;Samples;Min_cycle;Max_cycle;Signal;HPM_P1;HPM_P2
2022/03/16 00:00:25;;;;;;;;;28.67;26.00;;;;;21.93;43.46;101661.84;110383;1262;18773;-49
2022/03/16 00:03:07;;;;;;;;;32.00;29.33;;;;;21.92;43.38;101659.71;110410;1261;19486;-48
2022/03/16 00:05:36;;;;;;;;;25.33;25.33;;;;;21.93;43.33;101663.27;110435;1262;19634;-49
2022/03/16 00:08:03;;;;;;;;;31.33;25.67;;;;;21.93;43.52;101667.77;110437;1260;18747;-49
2022/03/16 00:10:30;;;;;;;;;25.33;24.00;;;;;21.93;43.38;101666.89;110419;1262;20229;-50
2022/03/16 00:12:58;;;;;;;;;29.33;26.67;;;;;21.93;43.44;101668.33;110486;1261;19537;-49
2022/03/16 00:15:25;;;;;;;;;30.50;28.50;;;;;21.94;43.45;101668.87;110401;1261;18981;-48
2022/03/16 00:17:53;;;;;;;;;29.33;25.67;;;;;21.94;43.28;101669.01;110402;1262;18997;-49
2022/03/16 00:20:20;;;;;;;;;26.67;23.33;;;;;21.94;43.26;101673.05;110404;1261;19484;-48
2022/03/16 00:22:48;;;;;;;;;23.00;21.50;;;;;21.94;43.36;101675.04;110373;1262;18750;-47
2022/03/16 00:25:15;;;;;;;;;33.67;27.67;;;;;21.92;43.27;101670.09;110477;1261;19045;-48
2022/03/16 00:27:43;;;;;;;;;31.00;25.67;;;;;21.93;43.30;101671.66;110409;1261;19638;-48
2022/03/16 00:30:10;;;;;;;;;27.00;25.33;;;;;21.93;43.30;101668.01;110425;1262;18770;-48
2022/03/16 00:32:37;;;;;;;;;32.67;27.67;;;;;21.93;43.18;101665.62;110433;1262;18914;-49
2022/03/16 00:35:04;;;;;;;;;28.33;26.00;;;;;21.93;43.09;101666.89;110399;1262;19684;-49
2022/03/16 00:37:32;;;;;;;;;24.33;23.00;;;;;21.92;43.14;101659.95;110424;1262;19241;-48
2022/03/16 00:40:00;;;;;;;;;33.67;27.67;;;;;21.92;43.13;101663.52;110440;1262;18791;-54
2022/03/16 00:42:27;;;;;;;;;25.67;23.33;;;;;21.93;43.05;101666.52;110362;1262;19470;-48
2022/03/16 00:44:54;;;;;;;;;29.00;25.00;;;;;21.92;43.09;101670.46;110404;1262;18729;-49
2022/03/16 00:47:22;;;;;;;;;29.00;28.00;;;;;21.92;43.13;101669.55;110417;1261;18909;-48
2022/03/16 00:49:49;;;;;;;;;28.50;26.00;;;;;21.92;43.18;101666.44;110421;1262;19569;-48
2022/03/16 00:52:16;;;;;;;;;27.00;25.50;;;;;21.91;42.91;101668.21;110453;1261;19078;-49
2022/03/16 00:54:43;;;;;;;;;30.67;27.67;;;;;21.91;43.06;101663.84;110425;1262;18950;-49
2022/03/16 00:57:11;;;;;;;;;29.00;25.00;;;;;21.91;43.03;101666.20;110399;1261;21771;-48
2022/03/16 00:59:39;;;;;;;;;30.67;27.00;;;;;21.91;43.21;101658.83;110399;1262;18821;-49
2022/03/16 01:02:06;;;;;;;;;30.33;24.67;;;;;21.91;43.10;101658.45;110383;1261;21059;-47
2022/03/16 01:04:33;;;;;;;;;29.33;25.33;;;;;21.90;43.11;101659.44;110397;1261;19384;-48
2022/03/16 01:07:01;;;;;;;;;26.33;25.67;;;;;21.90;43.05;101663.09;110461;1261;18822;-49
2022/03/16 01:09:28;;;;;;;;;29.33;25.00;;;;;21.89;42.98;101661.89;110372;1262;22218;-49
2022/03/16 01:11:55;;;;;;;;;31.33;25.67;;;;;21.90;43.07;101666.70;110407;1261;19732;-49
2022/03/16 01:14:22;;;;;;;;;29.00;28.00;;;;;21.90;42.96;101668.38;110398;1262;18883;-50
2022/03/16 01:16:49;;;;;;;;;31.00;27.00;;;;;21.89;42.99;101669.71;110409;1262;19049;-48
2022/03/16 01:19:17;;;;;;;;;33.67;26.67;;;;;21.90;43.01;101673.80;110323;1262;141357;-51
2022/03/16 01:21:44;;;;;;;;;29.33;26.00;;;;;21.90;42.96;101672.34;110443;1262;18782;-49
2022/03/16 01:24:12;;;;;;;;;29.50;26.50;;;;;21.89;42.85;101672.41;110444;1261;19116;-47
2022/03/16 01:26:39;;;;;;;;;24.50;22.50;;;;;21.89;42.82;101671.15;110451;1261;19540;-48
2022/03/16 01:29:06;;;;;;;;;30.67;27.33;;;;;21.89;42.82;101670.05;110425;1262;18769;-48
2022/03/16 01:31:33;;;;;;;;;32.00;27.33;;;;;21.90;42.84;101664.77;110409;1261;23080;-47
2022/03/16 01:34:00;;;;;;;;;30.33;25.67;;;;;21.90;42.89;101667.77;110442;1262;19504;-49
2022/03/16 01:36:28;;;;;;;;;32.00;27.67;;;;;21.91;42.93;101665.34;110374;1262;18779;-48
2022/03/16 01:38:55;;;;;;;;;28.67;26.00;;;;;21.90;42.80;101665.04;110407;1261;19093;-48
2022/03/16 01:41:22;;;;;;;;;30.33;26.33;;;;;21.91;42.66;101661.89;110403;1262;19803;-50
2022/03/16 01:43:49;;;;;;;;;25.33;25.33;;;;;21.90;42.65;101662.48;110339;1262;18688;-49
2022/03/16 01:46:17;;;;;;;;;31.00;26.67;;;;;21.91;42.67;101660.44;110408;1262;20233;-49
2022/03/16 01:48:44;;;;;;;;;29.33;26.00;;;;;21.91;42.58;101663.13;110436;1262;19570;-49
2022/03/16 01:51:12;;;;;;;;;23.00;23.00;;;;;21.91;42.72;101659.89;110390;1262;18767;-51
2022/03/16 01:53:39;;;;;;;;;31.50;25.50;;;;;21.91;42.66;101656.27;110397;1262;18910;-49
2022/03/16 01:56:06;;;;;;;;;26.00;23.00;;;;;21.91;42.61;101653.34;110384;1262;22908;-49
2022/03/16 01:58:33;;;;;;;;;28.67;22.00;;;;;21.90;42.48;101648.55;110285;1262;18783;-48
2022/03/16 02:01:00;;;;;;;;;27.00;26.00;;;;;21.90;42.74;101646.00;110334;1261;18853;-49
2022/03/16 02:03:28;;;;;;;;;28.00;26.67;;;;;21.91;42.71;101646.11;110327;1261;19552;-48
2022/03/16 02:05:55;;;;;;;;;29.00;27.00;;;;;21.90;42.62;101651.05;110344;1262;18801;-51
2022/03/16 02:08:22;;;;;;;;;27.67;23.00;;;;;21.89;42.74;101651.32;110303;1262;18916;-48
2022/03/16 02:10:49;;;;;;;;;27.00;23.00;;;;;21.90;42.74;101654.46;110294;1262;22016;-49
2022/03/16 02:13:17;;;;;;;;;26.00;22.67;;;;;21.91;42.83;101655.90;110293;1262;18861;-49
2022/03/16 02:15:44;;;;;;;;;26.00;22.33;;;;;21.90;42.66;101656.50;110343;1262;18926;-50
2022/03/16 02:18:11;;;;;;;;;28.00;24.67;;;;;21.90;42.62;101655.83;110325;1262;19816;-47
2022/03/16 02:20:39;;;;;;;;;26.67;24.67;;;;;21.90;42.60;101654.73;110378;1262;19040;-52
2022/03/16 02:23:06;;;;;;;;;25.50;22.00;;;;;21.89;42.47;101654.63;110302;1261;18868;-47
2022/03/16 02:25:34;;;;;;;;;24.33;20.33;;;;;21.89;42.56;101650.77;110381;1262;19669;-47
2022/03/16 02:28:01;;;;;;;;;26.00;23.00;;;;;21.90;42.45;101656.34;110490;1262;18842;-49
2022/03/16 02:30:28;;;;;;;;;31.67;27.67;;;;;21.89;42.62;101659.51;110326;1262;19211;-49
2022/03/16 02:32:55;;;;;;;;;27.50;23.00;;;;;21.90;42.47;101657.09;110230;1265;19762;-48
2022/03/16 02:35:23;;;;;;;;;26.00;25.00;;;;;21.88;42.47;101661.04;110415;1261;18907;-48
2022/03/16 02:37:50;;;;;;;;;26.00;25.67;;;;;21.89;42.43;101660.66;110411;1261;19405;-49
2022/03/16 02:40:18;;;;;;;;;22.00;21.50;;;;;21.88;42.48;101660.52;110431;1261;20197;-47
2022/03/16 02:42:45;;;;;;;;;25.00;24.00;;;;;21.88;42.63;101662.56;110444;1261;22171;-47
2022/03/16 02:45:12;;;;;;;;;22.67;21.00;;;;;21.89;42.47;101665.36;110446;1262;18811;-49
2022/03/16 02:47:40;;;;;;;;;33.00;26.33;;;;;21.89;42.39;101668.28;110394;1262;19599;-47
2022/03/16 02:50:07;;;;;;;;;23.00;23.00;;;;;21.87;42.45;101669.01;110384;1262;18972;-47
2022/03/16 02:52:34;;;;;;;;;37.00;26.00;;;;;21.88;42.50;101671.30;110416;1261;19043;-50
2022/03/16 02:55:01;;;;;;;;;26.33;23.00;;;;;21.88;42.41;101676.20;110313;1262;19937;-49
2022/03/16 02:57:29;;;;;;;;;24.33;23.67;;;;;21.87;42.49;101671.90;110406;1261;18746;-49
2022/03/16 02:59:56;;;;;;;;;27.33;24.33;;;;;21.86;42.36;101675.58;110408;1262;19112;-48
2022/03/16 03:02:24;;;;;;;;;28.67;26.33;;;;;21.87;42.32;101677.36;110417;1262;19603;-49
2022/03/16 03:04:51;;;;;;;;;27.33;24.67;;;;;21.86;42.51;101681.41;110416;1262;18684;-49
2022/03/16 03:07:18;;;;;;;;;30.00;25.00;;;;;21.87;42.37;101682.85;110446;1262;21411;-50
2022/03/16 03:09:45;;;;;;;;;22.33;22.00;;;;;21.87;42.41;101684.66;110450;1261;19900;-50
2022/03/16 03:12:12;;;;;;;;;26.33;22.00;;;;;21.86;42.43;101683.84;110391;1261;18716;-49
2022/03/16 03:14:40;;;;;;;;;27.50;26.50;;;;;21.86;42.38;101687.11;110412;1261;20320;-49
2022/03/16 03:17:07;;;;;;;;;24.00;22.00;;;;;21.86;42.31;101685.27;110405;1262;19510;-48
2022/03/16 03:19:34;;;;;;;;;25.00;23.00;;;;;21.87;42.20;101683.75;110366;1262;18780;-49
2022/03/16 03:22:02;;;;;;;;;27.33;24.33;;;;;21.86;42.37;101685.06;110466;1261;22964;-48
2022/03/16 03:24:29;;;;;;;;;26.00;23.33;;;;;21.87;42.28;101686.30;110351;1262;19835;-49
2022/03/16 03:26:56;;;;;;;;;30.00;26.00;;;;;21.86;42.32;101689.64;110340;1261;18675;-48
2022/03/16 03:29:24;;;;;;;;;26.00;22.00;;;;;21.86;42.33;101690.52;110418;1262;18815;-49
2022/03/16 03:31:51;;;;;;;;;25.33;23.00;;;;;21.87;42.18;101692.89;110413;1261;19393;-49
2022/03/16 03:34:18;;;;;;;;;24.00;23.00;;;;;21.87;42.27;101698.83;110424;1261;22243;-49
2022/03/16 03:36:46;;;;;;;;;30.00;25.00;;;;;21.86;42.26;101701.98;110290;1264;18822;-49
2022/03/16 03:39:13;;;;;;;;;25.00;22.67;;;;;21.86;42.39;101704.73;110168;1264;22138;-48
2022/03/16 03:41:40;;;;;;;;;27.00;23.00;;;;;21.85;42.17;101706.29;110384;1262;18819;-48
2022/03/16 03:44:07;;;;;;;;;26.50;23.00;;;;;21.86;42.15;101709.15;110412;1262;18853;-48
2022/03/16 03:46:35;;;;;;;;;24.33;23.00;;;;;21.86;42.18;101710.95;110435;1262;19607;-47
2022/03/16 03:49:02;;;;;;;;;29.00;24.00;;;;;21.85;42.36;101709.77;110491;1261;18764;-49
2022/03/16 03:51:29;;;;;;;;;24.33;20.33;;;;;21.85;42.22;101714.30;110352;1261;19141;-49
2022/03/16 03:53:56;;;;;;;;;27.33;22.33;;;;;21.86;42.16;101712.80;110360;1262;19836;-50
2022/03/16 03:56:23;;;;;;;;;27.00;22.00;;;;;21.86;42.23;101719.46;110333;1261;18767;-49
2022/03/16 03:58:51;;;;;;;;;24.67;23.33;;;;;21.86;42.07;101718.39;110467;1262;18839;-48
2022/03/16 04:01:18;;;;;;;;;26.00;23.00;;;;;21.86;42.27;101716.08;110457;1261;22255;-48
2022/03/16 04:03:45;;;;;;;;;27.50;21.50;;;;;21.87;41.97;101720.14;110467;1262;18712;-50
2022/03/16 04:06:12;;;;;;;;;25.00;22.67;;;;;21.85;42.25;101718.32;110423;1261;19442;-48
2022/03/16 04:08:40;;;;;;;;;25.33;22.33;;;;;21.86;42.21;101724.06;110431;1262;22998;-49
2022/03/16 04:11:07;;;;;;;;;25.67;23.67;;;;;21.84;42.22;101722.05;110413;1261;18838;-49
2022/03/16 04:13:34;;;;;;;;;26.00;22.67;;;;;21.84;42.05;101724.23;110391;1262;21838;-49
2022/03/16 04:16:01;;;;;;;;;22.33;21.33;;;;;21.85;42.17;101726.52;110439;1262;20011;-48
2022/03/16 04:18:28;;;;;;;;;25.67;22.00;;;;;21.84;42.29;101727.33;110394;1261;18968;-48
2022/03/16 04:20:56;;;;;;;;;27.00;23.50;;;;;21.85;42.16;101726.89;110413;1262;18841;-48
2022/03/16 04:23:23;;;;;;;;;28.00;22.67;;;;;21.85;42.04;101728.91;110445;1261;19476;-48
2022/03/16 04:25:50;;;;;;;;;21.00;19.00;;;;;21.85;42.03;101732.69;110414;1261;18768;-50
2022/03/16 04:28:17;;;;;;;;;29.00;23.00;;;;;21.84;42.08;101733.13;110433;1261;18794;-49
2022/03/16 04:30:45;;;;;;;;;23.50;22.00;;;;;21.84;42.26;101739.95;110413;1262;22357;-45
2022/03/16 04:33:12;;;;;;;;;24.67;22.00;;;;;21.83;42.16;101741.09;110434;1262;18716;-47
2022/03/16 04:35:39;;;;;;;;;23.00;21.50;;;;;21.84;42.21;101741.90;110404;1262;18933;-48
2022/03/16 04:38:08;;;;;;;;;23.00;22.33;;;;;21.84;41.96;101744.44;110447;1262;19472;-48
2022/03/16 04:40:35;;;;;;;;;22.67;21.67;;;;;21.84;41.93;101744.30;110454;1261;18634;-48
2022/03/16 04:43:02;;;;;;;;;21.50;20.50;;;;;21.83;42.11;101743.61;110433;1260;18926;-50
2022/03/16 04:45:30;;;;;;;;;27.33;23.67;;;;;21.84;42.10;101745.05;110376;1262;21456;-48
2022/03/16 04:47:57;;;;;;;;;26.00;21.00;;;;;21.85;41.92;101749.98;110281;1261;18926;-48
2022/03/16 04:50:24;;;;;;;;;22.33;21.33;;;;;21.85;42.06;101754.16;110206;1262;18826;-49
2022/03/16 04:52:51;;;;;;;;;23.00;22.00;;;;;21.84;42.18;101748.04;110398;1262;22847;-47
2022/03/16 04:55:18;;;;;;;;;22.00;22.00;;;;;21.85;42.09;101750.23;110456;1262;18769;-48
2022/03/16 04:57:46;;;;;;;;;26.33;22.33;;;;;21.85;41.97;101757.87;110402;1262;18800;-47
2022/03/16 05:00:13;;;;;;;;;23.00;23.00;;;;;21.84;41.88;101758.63;110433;1261;19859;-47
2022/03/16 05:02:40;;;;;;;;;22.67;21.00;;;;;21.84;42.06;101756.81;110411;1261;20346;-49
2022/03/16 05:05:09;;;;;;;;;21.67;21.00;;;;;21.84;42.01;101763.70;110296;1262;20253;-49
2022/03/16 05:07:37;;;;;;;;;25.00;21.67;;;;;21.85;42.12;101765.10;110385;1262;19586;-47
2022/03/16 05:10:04;;;;;;;;;25.00;22.00;;;;;21.84;41.98;101766.27;110359;1261;22210;-47
2022/03/16 05:12:31;;;;;;;;;26.67;24.67;;;;;21.84;42.03;101764.86;110244;1261;18769;-49
2022/03/16 05:14:58;;;;;;;;;28.67;25.33;;;;;21.85;42.00;101772.77;110425;1261;19580;-48
2022/03/16 05:17:26;;;;;;;;;25.00;22.33;;;;;21.83;42.01;101771.45;110445;1261;18696;-48
2022/03/16 05:19:53;;;;;;;;;29.67;26.67;;;;;21.83;42.03;101778.06;110480;1262;19054;-49
2022/03/16 05:22:20;;;;;;;;;29.50;25.50;;;;;21.83;41.91;101778.02;110445;1262;22065;-48
2022/03/16 05:24:47;;;;;;;;;26.00;24.67;;;;;21.83;42.15;101780.79;110434;1262;18689;-49
2022/03/16 05:27:15;;;;;;;;;22.00;21.00;;;;;21.83;42.05;101787.51;110408;1262;22294;-49
2022/03/16 05:29:42;;;;;;;;;22.33;21.33;;;;;21.83;42.09;101789.15;110367;1262;19745;-50
2022/03/16 05:32:09;;;;;;;;;22.00;21.00;;;;;21.83;42.04;101791.88;110401;1262;18799;-48
2022/03/16 05:34:36;;;;;;;;;27.33;24.00;;;;;21.83;41.89;101798.63;110264;1261;18895;-49
2022/03/16 05:37:04;;;;;;;;;25.00;22.67;;;;;21.83;41.88;101798.23;110339;1262;19479;-47
2022/03/16 05:39:31;;;;;;;;;26.00;23.67;;;;;21.84;41.84;101805.46;110264;1262;18957;-49
2022/03/16 05:42:00;;;;;;;;;25.00;22.00;;;;;21.83;41.88;101808.64;110376;1262;18932;-51
2022/03/16 05:44:27;;;;;;;;;22.00;21.00;;;;;21.83;41.86;101811.89;110362;1262;19481;-49
2022/03/16 05:46:57;;;;;;;;;29.33;24.33;;;;;21.83;41.86;101813.91;110421;1261;19238;-48
2022/03/16 05:49:25;;;;;;;;;22.67;22.00;;;;;21.82;41.96;101812.67;110415;1261;22223;-51
2022/03/16 05:51:52;;;;;;;;;23.00;21.00;;;;;21.82;41.98;101814.14;110454;1261;19578;-50
2022/03/16 05:54:19;;;;;;;;;21.33;20.00;;;;;21.82;42.01;101818.54;110417;1262;18695;-52
2022/03/16 05:56:47;;;;;;;;;23.00;22.00;;;;;21.87;42.06;101820.56;110361;1261;18974;-49
2022/03/16 05:59:14;;;;;;;;;23.67;23.67;;;;;21.92;42.58;101817.30;110455;1261;19939;-50
2022/03/16 06:01:41;;;;;;;;;21.00;19.67;;;;;21.97;42.71;101822.61;110319;1262;18916;-50
2022/03/16 06:04:08;;;;;;;;;24.33;23.00;;;;;22.01;42.84;101821.84;110339;1261;21698;-49
2022/03/16 06:06:36;;;;;;;;;25.00;22.00;;;;;22.00;43.29;101823.80;110263;1261;21884;-50
2022/03/16 06:09:04;;;;;;;;;27.00;21.33;;;;;22.01;43.29;101827.30;110218;1262;18797;-49
2022/03/16 06:11:31;;;;;;;;;26.67;23.00;;;;;22.00;43.66;101832.48;110391;1262;18789;-52
2022/03/16 06:13:58;;;;;;;;;26.67;25.67;;;;;21.99;43.67;101839.70;110398;1261;19648;-51
2022/03/16 06:16:26;;;;;;;;;25.00;22.50;;;;;21.96;43.95;101838.18;110408;1261;18811;-49
2022/03/16 06:18:53;;;;;;;;;30.33;29.33;;;;;21.96;43.89;101843.88;110408;1261;19086;-49
2022/03/16 06:21:21;;;;;;;;;25.33;23.00;;;;;21.95;44.05;101848.55;110351;1262;19505;-49
2022/03/16 06:23:48;;;;;;;;;22.50;22.00;;;;;21.94;44.09;101855.53;110320;1262;18787;-51
2022/03/16 06:26:15;;;;;;;;;30.00;27.00;;;;;21.95;43.99;101860.89;110392;1262;18933;-50
2022/03/16 06:28:43;;;;;;;;;30.00;25.67;;;;;21.97;43.95;101863.21;110398;1262;19553;-49
2022/03/16 06:31:10;;;;;;;;;24.00;23.00;;;;;21.95;43.95;101862.20;110407;1261;18691;-48
2022/03/16 06:33:37;;;;;;;;;26.50;23.50;;;;;21.95;44.03;101858.85;110303;1262;19058;-46
2022/03/16 06:36:04;;;;;;;;;27.00;24.50;;;;;21.97;43.99;101864.17;110368;1261;22953;-48
2022/03/16 06:38:31;;;;;;;;;24.67;23.00;;;;;21.96;43.73;101867.52;110278;1261;20886;-47
2022/03/16 06:40:59;;;;;;;;;25.00;23.00;;;;;21.94;44.06;101870.95;110345;1262;19186;-52
2022/03/16 06:43:26;;;;;;;;;28.67;22.67;;;;;21.94;43.96;101876.30;110341;1261;19510;-50
2022/03/16 06:45:53;;;;;;;;;29.67;25.67;;;;;21.94;44.00;101879.58;110394;1261;18724;-48
2022/03/16 06:48:23;;;;;;;;;27.00;25.00;;;;;21.92;44.22;101880.61;110355;1262;24953;-50
2022/03/16 06:50:51;;;;;;;;;22.33;21.33;;;;;21.93;44.25;101886.53;110417;1261;19551;-49
2022/03/16 06:53:18;;;;;;;;;26.67;25.67;;;;;21.97;43.91;101892.13;110299;1262;22178;-49
2022/03/16 06:55:45;;;;;;;;;29.00;26.67;;;;;22.00;43.76;101889.12;110290;1261;19137;-48
2022/03/16 06:58:12;;;;;;;;;23.33;23.00;;;;;22.03;43.70;101889.66;110363;1261;19671;-48
2022/03/16 07:00:40;;;;;;;;;26.50;23.50;;;;;22.07;44.03;101897.52;110336;1262;18740;-49
2022/03/16 07:03:07;;;;;;;;;25.67;23.33;;;;;22.07;44.63;101898.54;110293;1262;22312;-50
2022/03/16 07:05:34;;;;;;;;;29.67;26.00;;;;;22.06;44.84;101904.16;110356;1261;19502;-50
2022/03/16 07:08:02;;;;;;;;;27.00;25.67;;;;;22.05;44.68;101902.57;110174;1261;18849;-50
2022/03/16 07:10:29;;;;;;;;;31.00;25.33;;;;;22.06;44.65;101904.13;110306;1261;18876;-49
2022/03/16 07:12:56;;;;;;;;;25.33;22.67;;;;;22.08;44.59;101910.65;110448;1262;19450;-49
2022/03/16 07:15:23;;;;;;;;;24.33;23.00;;;;;22.07;44.67;101918.00;110410;1261;23202;-50
2022/03/16 07:17:51;;;;;;;;;28.67;26.33;;;;;22.04;44.59;101918.40;110416;1262;18863;-50
2022/03/16 07:20:18;;;;;;;;;31.00;27.33;;;;;22.01;44.62;101921.92;110345;1261;19939;-50
2022/03/16 07:22:45;;;;;;;;;28.67;24.67;;;;;22.00;44.65;101924.29;110245;1262;22806;-49
2022/03/16 07:25:12;;;;;;;;;31.00;28.50;;;;;21.96;44.73;101924.00;110438;1262;18915;-49
2022/03/16 07:27:40;;;;;;;;;29.00;25.67;;;;;21.94;44.69;101931.86;110313;1262;19547;-50
2022/03/16 07:30:08;;;;;;;;;27.33;24.67;;;;;21.94;44.71;101932.30;110341;1262;18656;-50
2022/03/16 07:32:35;;;;;;;;;29.00;25.67;;;;;21.97;44.79;101932.53;110361;1261;18896;-52
2022/03/16 07:35:02;;;;;;;;;27.00;25.50;;;;;22.00;44.81;101937.52;110268;1262;22206;-51
2022/03/16 07:37:29;;;;;;;;;25.67;24.33;;;;;22.00;44.67;101934.44;110347;1261;18887;-48
2022/03/16 07:39:56;;;;;;;;;26.67;25.00;;;;;22.00;44.78;101941.69;110233;1261;22623;-50
2022/03/16 07:42:24;;;;;;;;;31.00;26.50;;;;;21.99;44.77;101940.54;110376;1261;19517;-49
2022/03/16 07:44:51;;;;;;;;;29.33;29.33;;;;;21.99;44.74;101939.62;110352;1261;19054;-52
2022/03/16 07:47:19;;;;;;;;;28.00;26.00;;;;;21.98;44.66;101945.58;110381;1262;19484;-51
2022/03/16 07:49:46;;;;;;;;;33.67;30.33;;;;;21.98;44.65;101944.89;110102;1261;21330;-50
2022/03/16 07:52:13;;;;;;;;;30.00;26.00;;;;;21.98;44.42;101947.52;110464;1262;18955;-48
2022/03/16 07:54:40;;;;;;;;;26.33;25.67;;;;;21.98;44.60;101948.61;110355;1262;18843;-49
2022/03/16 07:57:08;;;;;;;;;30.33;27.33;;;;;21.99;44.70;101957.09;110330;1261;19477;-52
2022/03/16 07:59:35;;;;;;;;;23.67;22.67;;;;;22.03;44.34;101955.22;110309;1262;18990;-51
2022/03/16 08:02:02;;;;;;;;;28.33;25.33;;;;;22.06;44.42;101958.19;110098;1262;18965;-49
2022/03/16 08:04:29;;;;;;;;;25.67;25.00;;;;;22.07;44.51;101961.02;110187;1262;19513;-49
2022/03/16 08:06:57;;;;;;;;;25.33;22.00;;;;;22.12;44.57;101969.45;110236;1261;18796;-48
2022/03/16 08:09:24;;;;;;;;;30.50;26.50;;;;;22.17;44.27;101968.48;110078;1262;24376;-50
2022/03/16 08:11:51;;;;;;;;;26.00;25.33;;;;;22.15;45.38;101971.91;110180;1262;19555;-50
2022/03/16 08:14:18;;;;;;;;;27.00;24.50;;;;;22.15;45.36;101970.11;110202;1262;18770;-48
2022/03/16 08:16:46;;;;;;;;;25.50;24.00;;;;;22.15;45.66;101975.02;110085;1262;21962;-48
2022/03/16 08:19:15;;;;;;;;;35.00;31.67;;;;;22.14;45.58;101978.36;110176;1262;19589;-49
2022/03/16 08:21:42;;;;;;;;;43.33;35.67;;;;;22.10;45.22;101976.91;110153;1261;18670;-49
2022/03/16 08:24:09;;;;;;;;;26.50;25.00;;;;;22.07;44.57;101981.56;110185;1261;18845;-50
2022/03/16 08:26:37;;;;;;;;;33.00;27.00;;;;;22.08;45.02;101981.86;110200;1261;19362;-50
2022/03/16 08:29:04;;;;;;;;;29.50;29.00;;;;;22.07;45.16;101982.10;110247;1261;18672;-50
2022/03/16 08:31:31;;;;;;;;;29.00;26.00;;;;;22.05;44.92;101979.95;110409;1262;19587;-50
2022/03/16 08:33:59;;;;;;;;;30.33;25.00;;;;;22.08;44.91;101984.08;110319;1262;22325;-48
2022/03/16 08:36:26;;;;;;;;;28.67;27.33;;;;;22.11;44.77;101981.58;110361;1262;18672;-48
2022/03/16 08:38:54;;;;;;;;;29.33;23.33;;;;;22.12;44.69;101977.83;110268;1262;18879;-50
2022/03/16 08:41:21;;;;;;;;;29.00;26.50;;;;;22.10;44.86;101981.11;110151;1263;19487;-50
2022/03/16 08:43:48;;;;;;;;;28.67;26.00;;;;;22.08;44.71;101982.20;110228;1264;21205;-50
2022/03/16 08:46:16;;;;;;;;;26.00;25.50;;;;;22.10;44.68;101979.13;110266;1263;18888;-50
2022/03/16 08:48:43;;;;;;;;;26.33;25.00;;;;;22.15;44.49;101979.96;110206;1263;19833;-54
2022/03/16 08:51:10;;;;;;;;;32.50;29.00;;;;;22.16;44.46;101982.02;110188;1262;21257;-50
2022/03/16 08:53:38;;;;;;;;;31.67;29.67;;;;;22.19;44.28;101979.71;110103;1262;18908;-49
2022/03/16 08:56:05;;;;;;;;;29.00;26.00;;;;;22.24;44.07;101981.70;110051;1264;19648;-49
2022/03/16 08:58:32;;;;;;;;;25.50;25.50;;;;;22.28;43.92;101984.25;110225;1261;18755;-51
2022/03/16 09:01:00;;;;;;;;;33.33;33.33;;;;;22.30;43.81;101990.05;110247;1262;18943;-48
2022/03/16 09:03:28;;;;;;;;;31.00;28.67;;;;;22.32;43.63;101991.23;110196;1261;19526;-48
2022/03/16 09:05:55;;;;;;;;;37.50;33.00;;;;;22.35;43.67;101990.80;110143;1262;18746;-51
2022/03/16 09:08:22;;;;;;;;;39.67;36.67;;;;;22.37;43.70;101997.15;110111;1262;18949;-51
2022/03/16 09:10:50;;;;;;;;;30.67;27.67;;;;;22.39;43.52;101994.56;110421;1261;21793;-48
2022/03/16 09:13:17;;;;;;;;;40.00;35.00;;;;;22.39;43.31;101996.03;110485;1262;18825;-51
2022/03/16 09:15:45;;;;;;;;;39.50;37.50;;;;;22.42;43.16;101996.67;110404;1261;18806;-50
2022/03/16 09:18:12;;;;;;;;;27.00;25.67;;;;;22.44;43.42;102004.61;110374;1262;19525;-50
2022/03/16 09:20:39;;;;;;;;;38.00;36.50;;;;;22.45;43.35;102009.46;110380;1261;18824;-49
2022/03/16 09:23:10;;;;;;;;;34.00;29.67;;;;;22.47;43.68;102010.85;110337;1262;20314;-51
2022/03/16 09:25:38;;;;;;;;;38.67;35.33;;;;;22.48;43.17;102012.00;110187;1262;20037;-50
2022/03/16 09:28:05;;;;;;;;;32.33;31.00;;;;;22.51;43.32;102015.73;110256;1261;18901;-49
2022/03/16 09:30:32;;;;;;;;;33.00;31.67;;;;;22.55;43.21;102017.66;110137;1262;18761;-48
2022/03/16 09:33:00;;;;;;;;;37.50;31.50;;;;;22.57;43.52;102020.05;110194;1262;20954;-48
2022/03/16 09:35:30;;;;;;;;;35.00;31.67;;;;;22.57;43.35;102023.14;110215;1261;18914;-49
2022/03/16 09:37:58;;;;;;;;;30.00;28.00;;;;;22.59;43.55;102030.16;110226;1262;19093;-49
2022/03/16 09:40:25;;;;;;;;;35.33;35.00;;;;;22.59;43.44;102031.11;110234;1262;19334;-50
2022/03/16 09:42:54;;;;;;;;;33.67;28.33;;;;;22.58;43.37;102032.84;110414;1262;18780;-50
2022/03/16 09:45:21;;;;;;;;;30.33;28.00;;;;;22.63;43.60;102035.39;110364;1261;22383;-50
2022/03/16 09:47:48;;;;;;;;;30.00;29.00;;;;;22.67;43.92;102038.66;110373;1261;19721;-51
2022/03/16 09:50:17;;;;;;;;;28.33;27.67;;;;;22.70;43.80;102038.35;110274;1262;22724;-50
2022/03/16 09:52:45;;;;;;;;;32.00;30.00;;;;;22.72;43.80;102039.29;110285;1262;18887;-48
2022/03/16 09:55:12;;;;;;;;;30.67;27.33;;;;;22.71;43.81;102039.15;110402;1262;21671;-50
2022/03/16 09:57:39;;;;;;;;;30.33;28.00;;;;;22.67;43.64;102040.82;110348;1261;19207;-49
2022/03/16 10:00:07;;;;;;;;;30.33;30.33;;;;;22.65;43.83;102037.78;110386;1262;18870;-49
2022/03/16 10:02:34;;;;;;;;;32.67;31.00;;;;;22.66;44.07;102039.13;110402;1261;19455;-49
2022/03/16 10:05:01;;;;;;;;;33.00;29.00;;;;;22.67;44.54;102043.38;110328;1261;18816;-50
2022/03/16 10:07:29;;;;;;;;;27.00;26.33;;;;;22.70;44.72;102045.45;110322;1262;22084;-49
2022/03/16 10:15:26;;;;;;;;;34.33;28.67;;;;;22.71;44.61;102043.79;110216;1262;19057;-49
2022/03/16 10:17:54;;;;;;;;;30.00;28.00;;;;;22.66;44.51;102044.73;110322;1262;22816;-49
2022/03/16 10:20:21;;;;;;;;;31.00;27.00;;;;;22.60;44.25;102041.54;110308;1261;18828;-50
2022/03/16 10:22:49;;;;;;;;;31.50;28.50;;;;;22.55;44.29;102042.77;110321;1262;19024;-50
2022/03/16 10:25:17;;;;;;;;;31.33;29.67;;;;;22.57;44.14;102041.83;110483;1260;20223;-51
2022/03/16 10:27:44;;;;;;;;;32.00;30.00;;;;;22.59;44.20;102037.64;110359;1262;18891;-51
2022/03/16 10:30:11;;;;;;;;;41.00;36.67;;;;;22.60;44.07;102044.49;110223;1261;19137;-52
2022/03/16 10:32:39;;;;;;;;;34.00;31.00;;;;;22.61;44.23;102048.18;110292;1261;19567;-51
2022/03/16 10:35:06;;;;;;;;;33.00;31.00;;;;;22.62;44.65;102049.92;110386;1261;18902;-51
2022/03/16 10:37:34;;;;;;;;;32.50;29.00;;;;;22.61;44.50;102049.48;110234;1262;18921;-49
2022/03/16 10:40:03;;;;;;;;;29.00;26.00;;;;;22.62;44.78;102048.86;110308;1262;22994;-51
2022/03/16 10:48:20;;;;;;;;;28.33;26.33;;;;;22.63;44.82;102043.65;109031;1273;25896;-51
2022/03/16 10:50:48;;;;;;;;;29.00;27.00;;;;;22.63;44.71;102043.58;109007;1273;18747;-51
2022/03/16 10:53:15;;;;;;;;;26.00;26.00;;;;;22.63;44.72;102042.69;109015;1273;18883;-51
2022/03/16 10:55:43;;;;;;;;;27.00;25.00;;;;;22.62;44.64;102045.38;108983;1273;19397;-49
2022/03/16 10:58:10;;;;;;;;;30.00;27.00;;;;;22.61;44.80;102043.23;109009;1272;25238;-51
2022/03/16 11:00:37;;;;;;;;;26.67;23.67;;;;;22.61;44.58;102045.67;109055;1272;18831;-51
2022/03/16 11:03:06;;;;;;;;;30.67;27.67;;;;;22.58;44.52;102040.11;108908;1273;23555;-49
2022/03/16 11:05:36;;;;;;;;;24.67;23.00;;;;;22.56;44.53;102043.04;108974;1272;18933;-49
2022/03/16 11:08:06;;;;;;;;;27.67;26.67;;;;;22.56;44.44;102039.86;109250;1271;18919;-46
2022/03/16 11:10:34;;;;;;;;;27.33;24.33;;;;;22.56;44.21;102044.02;109069;1273;19556;-51
2022/03/16 11:15:46;;;;;;;;;24.00;22.50;;;;;22.53;44.28;102042.33;108920;1273;19166;-52